createdAt,value
2022-11-05T00:02:51.750Z,91.00
2022-11-05T00:08:24.900Z,91.07
2022-11-05T00:13:45.429Z,91.81
2022-11-05T00:19:06.402Z,91.23
2022-11-05T00:24:28.349Z,90.85
2022-11-05T00:29:31.357Z,90.82
2022-11-05T00:34:34.271Z,90.89
2022-11-05T00:39:38.755Z,91.11
2022-11-05T00:44:59.014Z,91.24
2022-11-05T00:50:01.902Z,91.30
2022-11-05T00:55:06.438Z,90.87
2022-11-05T01:00:11.326Z,92.71
2022-11-05T01:05:15.113Z,92.23
2022-11-05T01:10:19.385Z,91.99
2022-11-05T01:15:22.722Z,92.83
2022-11-05T01:20:25.711Z,92.97
2022-11-05T01:25:30.061Z,91.73
2022-11-05T01:30:33.166Z,92.16
2022-11-05T01:35:36.117Z,91.28
2022-11-05T01:40:43.937Z,91.39
2022-11-05T01:45:50.197Z,91.16
2022-11-05T01:50:57.914Z,91.02
2022-11-05T01:56:06.703Z,91.48
2022-11-05T02:01:09.830Z,91.54
2022-11-05T02:06:14.736Z,91.65
2022-11-05T02:11:20.828Z,91.37
2022-11-05T02:16:36.709Z,91.72
2022-11-05T02:21:59.131Z,92.43
2022-11-05T02:27:15.909Z,92.34
2022-11-05T02:32:29.339Z,92.13
2022-11-05T02:37:41.044Z,92.00
2022-11-05T02:42:49.929Z,92.43
2022-11-05T02:48:00.161Z,92.09
2022-11-05T02:53:07.856Z,90.98
2022-11-05T02:58:11.187Z,91.76
2022-11-05T03:03:23.830Z,91.88
2022-11-05T03:08:40.325Z,92.41
2022-11-05T03:13:53.220Z,92.04
2022-11-05T03:19:07.834Z,91.97
2022-11-05T03:24:16.682Z,91.15
2022-11-05T03:29:24.096Z,91.44
2022-11-05T03:34:33.184Z,91.54
2022-11-05T03:39:40.387Z,91.43
2022-11-05T03:44:47.505Z,91.57
2022-11-05T03:49:59.334Z,91.91
2022-11-05T03:55:02.305Z,91.23
2022-11-05T04:00:08.959Z,92.47
2022-11-05T04:05:33.277Z,91.11
2022-11-05T04:11:02.371Z,90.96
2022-11-05T04:16:23.249Z,90.43
2022-11-05T04:21:45.092Z,90.80
2022-11-05T04:26:48.238Z,91.05
2022-11-05T04:31:51.197Z,92.49
2022-11-05T04:36:55.446Z,91.94
2022-11-05T04:41:58.325Z,92.41
2022-11-05T04:47:01.275Z,91.97
2022-11-05T04:52:05.705Z,90.91
2022-11-05T04:57:09.392Z,91.92
2022-11-05T05:02:12.298Z,93.33
2022-11-05T05:07:16.669Z,92.70
2022-11-05T05:12:19.657Z,91.68
2022-11-05T05:17:23.138Z,91.03
2022-11-05T05:22:27.424Z,90.02
2022-11-05T05:27:31.178Z,91.14
2022-11-05T05:32:34.388Z,91.42
2022-11-05T05:37:38.691Z,90.62
2022-11-05T05:42:43.361Z,90.49
2022-11-05T05:47:46.644Z,90.24
2022-11-05T05:52:50.901Z,91.10
2022-11-05T05:57:54.793Z,89.96
2022-11-05T06:02:58.012Z,89.52
2022-11-05T06:08:02.350Z,89.92
2022-11-05T06:13:05.412Z,89.20
2022-11-05T06:18:09.488Z,90.99
2022-11-05T06:23:13.868Z,90.67
2022-11-05T06:28:16.997Z,90.44
2022-11-05T06:33:19.941Z,90.14
2022-11-05T06:38:24.288Z,89.64
2022-11-05T06:43:27.248Z,89.45
2022-11-05T06:48:30.608Z,88.56
2022-11-05T06:53:35.746Z,88.66
2022-11-05T06:58:38.669Z,88.73
2022-11-05T07:03:41.664Z,88.31
2022-11-05T07:08:46.089Z,88.71
2022-11-05T07:13:49.010Z,87.40
2022-11-05T07:18:53.126Z,86.77
2022-11-05T07:23:58.170Z,86.98
2022-11-05T07:29:01.070Z,86.88
2022-11-05T07:34:04.746Z,87.02
2022-11-05T07:39:10.216Z,87.17
2022-11-05T07:44:14.456Z,86.97
2022-11-05T07:49:17.718Z,86.87
2022-11-05T07:54:26.391Z,85.60
2022-11-05T07:59:29.546Z,85.13
2022-11-05T08:04:32.534Z,84.61
2022-11-05T08:09:36.846Z,84.39
2022-11-05T08:14:39.757Z,84.30
2022-11-05T08:19:42.651Z,84.82
2022-11-05T08:24:46.933Z,83.32
2022-11-05T08:29:49.845Z,83.09
2022-11-05T08:34:52.803Z,82.95
2022-11-05T08:39:57.171Z,82.33
2022-11-05T08:45:00.104Z,83.46
2022-11-05T08:50:03.123Z,82.62
2022-11-05T08:55:08.306Z,81.82
2022-11-05T09:00:12.387Z,82.36
2022-11-05T09:05:15.315Z,81.38
2022-11-05T09:10:19.678Z,81.81
2022-11-05T09:15:23.315Z,81.58
2022-11-05T09:20:26.493Z,80.80
2022-11-05T09:25:30.803Z,80.36
2022-11-05T09:30:33.742Z,79.98
2022-11-05T09:35:39.547Z,79.63
2022-11-05T09:40:53.207Z,79.30
2022-11-05T09:45:59.249Z,79.16
2022-11-05T09:51:02.254Z,78.86
2022-11-05T09:56:16.490Z,78.47
2022-11-05T10:01:24.375Z,79.36
2022-11-05T10:06:28.894Z,77.79
2022-11-05T10:11:38.897Z,77.98
2022-11-05T10:16:44.717Z,78.90
2022-11-05T10:27:17.581Z,78.24
2022-11-05T10:32:28.963Z,77.75
2022-11-05T10:37:37.002Z,75.95
2022-11-05T10:42:53.371Z,76.21
2022-11-05T10:48:21.290Z,73.30
2022-11-05T10:53:28.650Z,73.41
2022-11-05T10:58:35.443Z,73.95
2022-11-05T11:03:45.566Z,72.37
2022-11-05T11:08:49.803Z,72.65
2022-11-05T11:14:02.548Z,70.23
2022-11-05T11:19:21.981Z,71.49
2022-11-05T11:24:27.564Z,71.25
2022-11-05T11:29:41.134Z,71.90
2022-11-05T11:34:47.715Z,69.41
2022-11-05T11:39:55.537Z,70.22
2022-11-05T11:45:02.963Z,72.53
2022-11-05T11:50:06.213Z,73.93
2022-11-05T11:55:21.303Z,72.98
2022-11-05T12:00:26.935Z,73.19
2022-11-05T12:05:37.317Z,73.01
2022-11-05T12:10:52.526Z,71.28
2022-11-05T12:15:59.077Z,72.25
2022-11-05T12:21:14.584Z,70.80
2022-11-05T12:26:27.804Z,70.45
2022-11-05T12:31:40.154Z,69.05
2022-11-05T12:36:59.066Z,67.85
2022-11-05T12:42:03.838Z,66.66
2022-11-05T12:47:22.349Z,66.31
2022-11-05T12:53:06.567Z,65.42
2022-11-05T12:58:13.607Z,67.48
2022-11-05T13:03:27.361Z,67.96
2022-11-05T13:08:38.999Z,67.50
2022-11-05T13:13:47.854Z,66.93
2022-11-05T13:18:55.921Z,68.10
2022-11-05T13:24:06.942Z,68.61
2022-11-05T13:29:15.130Z,71.84
2022-11-05T13:34:19.509Z,72.18
2022-11-05T13:39:26.800Z,70.76
2022-11-05T13:45:04.449Z,69.06
2022-11-05T13:50:29.240Z,68.74
2022-11-05T13:55:49.779Z,68.41
2022-11-05T14:01:07.068Z,68.97
2022-11-05T14:06:12.157Z,71.14
2022-11-05T14:11:22.969Z,73.16
2022-11-05T14:16:29.545Z,74.96
2022-11-05T14:21:48.393Z,76.37
2022-11-05T14:27:24.698Z,75.23
2022-11-05T14:32:43.418Z,75.70
2022-11-05T14:37:55.095Z,76.61
2022-11-05T14:43:02.319Z,77.11
2022-11-05T14:48:08.128Z,77.66
2022-11-05T14:53:27.779Z,78.15
2022-11-05T14:58:36.524Z,78.32
2022-11-05T15:04:19.380Z,78.33
2022-11-05T15:09:34.427Z,78.63
2022-11-05T15:14:42.388Z,78.08
2022-11-05T15:19:46.856Z,77.96
2022-11-05T15:24:51.365Z,79.11
2022-11-05T15:29:54.775Z,79.87
2022-11-05T15:34:57.835Z,80.34
2022-11-05T15:40:02.246Z,80.22
2022-11-05T15:45:05.955Z,82.03
2022-11-05T15:50:15.465Z,82.43
2022-11-05T15:55:23.734Z,83.20
2022-11-05T16:00:28.288Z,81.54
2022-11-05T16:05:34.794Z,80.99
2022-11-05T16:10:40.270Z,80.82
2022-11-05T16:15:54.554Z,80.11
2022-11-05T16:21:02.422Z,80.01
2022-11-05T16:26:07.078Z,80.05
2022-11-05T16:31:10.010Z,80.57
2022-11-05T16:36:13.854Z,80.46
2022-11-05T16:41:20.439Z,80.84
2022-11-05T16:46:25.229Z,80.08
2022-11-05T16:51:29.147Z,80.95
2022-11-05T16:56:34.471Z,81.63
2022-11-05T17:01:40.478Z,82.39
2022-11-05T17:06:46.619Z,82.25
2022-11-05T17:11:50.868Z,83.37
2022-11-05T17:16:53.926Z,83.72
2022-11-05T17:21:57.038Z,83.76
2022-11-05T17:27:01.297Z,85.83
2022-11-05T17:32:06.394Z,85.75
2022-11-05T17:37:09.295Z,85.46
2022-11-05T17:42:13.618Z,86.04
2022-11-05T17:47:16.515Z,86.86
2022-11-05T17:52:19.469Z,88.19
2022-11-05T17:57:23.848Z,87.04
2022-11-05T18:02:29.461Z,87.55
2022-11-05T18:07:32.598Z,87.70
2022-11-05T18:12:37.323Z,87.12
2022-11-05T18:17:40.272Z,86.46
2022-11-05T18:22:43.927Z,85.05
2022-11-05T18:27:48.288Z,84.92
2022-11-05T18:32:51.286Z,85.16
2022-11-05T18:37:54.174Z,84.83
2022-11-05T18:42:58.437Z,86.19
2022-11-05T18:48:01.894Z,85.79
2022-11-05T18:53:04.800Z,85.50
2022-11-05T18:58:09.788Z,85.59
2022-11-05T19:03:12.753Z,84.99
2022-11-05T19:08:15.688Z,84.50
2022-11-05T19:13:20.333Z,85.16
2022-11-05T19:18:23.244Z,84.67
2022-11-05T19:23:26.160Z,84.72
2022-11-05T19:28:30.458Z,85.08
2022-11-05T19:33:33.822Z,85.16
2022-11-05T19:38:36.876Z,86.47
2022-11-05T19:43:42.689Z,86.30
2022-11-05T19:48:46.891Z,86.18
2022-11-05T19:53:51.458Z,87.37
2022-11-05T19:58:55.852Z,85.96
2022-11-05T20:04:00.238Z,86.01
2022-11-05T20:09:22.882Z,85.74
2022-11-05T20:14:27.851Z,86.40
2022-11-05T20:19:30.832Z,85.63
2022-11-05T20:24:33.799Z,84.95
2022-11-05T20:29:38.239Z,85.22
2022-11-05T20:34:41.598Z,85.37
2022-11-05T20:39:44.506Z,85.03
2022-11-05T20:44:48.821Z,84.99
2022-11-05T20:49:51.780Z,85.22
2022-11-05T20:54:54.923Z,85.85
2022-11-05T20:59:59.229Z,86.84
2022-11-05T21:05:02.299Z,87.22
2022-11-05T21:10:05.973Z,89.13
2022-11-05T21:15:11.735Z,88.75
2022-11-05T21:20:14.655Z,89.41
2022-11-05T21:25:17.562Z,88.61
2022-11-05T21:30:21.909Z,88.34
2022-11-05T21:35:24.864Z,87.21
2022-11-05T21:40:27.907Z,86.67
2022-11-05T21:45:32.515Z,86.08
2022-11-05T21:50:53.389Z,85.73
2022-11-05T21:56:14.105Z,85.56
2022-11-05T22:01:18.583Z,85.66
2022-11-05T22:06:21.651Z,86.33
2022-11-05T22:11:24.547Z,87.12
2022-11-05T22:16:28.864Z,87.74
2022-11-05T22:21:31.770Z,87.58
2022-11-05T22:26:35.344Z,87.26
2022-11-05T22:31:39.880Z,87.95
2022-11-05T22:36:42.815Z,87.58
2022-11-05T22:41:46.130Z,87.49
2022-11-05T22:46:50.513Z,87.50
2022-11-05T22:51:53.420Z,87.76
2022-11-05T22:56:56.363Z,87.19
2022-11-05T23:02:04.034Z,86.31
2022-11-05T23:07:31.275Z,86.36
2022-11-05T23:12:37.786Z,86.68
2022-11-05T23:17:59.438Z,85.78
2022-11-05T23:23:34.462Z,87.58
2022-11-05T23:28:37.400Z,87.35
2022-11-05T23:33:41.678Z,87.48
2022-11-05T23:38:44.608Z,86.57
2022-11-05T23:44:19.648Z,87.23
2022-11-05T23:49:24.427Z,87.99
2022-11-05T23:54:27.344Z,88.15
2022-11-05T23:59:30.259Z,87.37
